Flight Track Log - Related Links

Times and Time Zones

All times are in EDT time to prevent confusion due to time zone crossing. See the RPA4293 flight status page for this flight to view local times or setup timezone preferences in your user account.

Time Position Orientation Groundspeed Altitude Reporting Facility
EDT Latitude Longitude Course Direction KTS MPH feet Rate Location/Type
Thu 06:28:48 AM 42.9167 -78.7500 270° West 156 180 1,600  Level Buffalo TRACON
Thu 06:29:24 AM 42.9000 -78.7667 216° Southwest 151 174 2,500 1,563 Climbing Buffalo TRACON
Thu 06:30:24 AM 42.8833 -78.8333 251° West 238 274 4,100 2,150 Climbing Buffalo TRACON
Thu 06:31:00 AM 42.9500 -79.0603 270° West  Level FlightAware Approximate
Thu 06:31:24 AM 42.8833 -78.9333 270° West 256 295 6,800  Level Buffalo TRACON
Thu 06:32:00 AM 42.9591 -79.1750 277° West  Level FlightAware Approximate
Thu 06:32:24 AM 42.9000 -79.0333 283° West 261 300 9,500  Level Buffalo TRACON
Thu 06:33:00 AM 42.9667 -79.2899 270° West  Level FlightAware Approximate
Thu 06:33:24 AM 42.9000 -79.1333 270° West 281 323 11,200  Level Buffalo TRACON
Thu 06:34:30 AM 42.9167 -79.2500 281° West 312 359 13,600 2,000 Climbing Buffalo TRACON
Thu 06:35:51 AM 42.9167 -79.4000 270° West 310 357 16,100 1,787 Climbing Toronto Center
Thu 06:36:51 AM 42.9167 -79.5167 270° West 320 368 17,800 1,750 Climbing Toronto Center
Thu 06:37:51 AM 42.9333 -79.6500 280° West 330 380 19,600 1,650 Climbing Toronto Center
Thu 06:38:51 AM 42.9333 -79.7667 270° West 340 391 21,100 1,450 Climbing Toronto Center
Thu 06:39:51 AM 42.9500 -79.9000 280° West 350 403 22,500 1,400 Climbing Toronto Center
Thu 06:40:51 AM 42.9667 -80.0500 279° West 360 414 23,900 1,400 Climbing Toronto Center
Thu 06:41:51 AM 42.9667 -80.1833 270° West 360 414 25,300 1,250 Climbing Toronto Center
Thu 06:42:51 AM 42.9833 -80.3167 280° West 370 426 26,400 1,350 Climbing Toronto Center
Thu 06:43:51 AM 42.9833 -80.4833 270° West 370 426 28,000 1,350 Climbing Toronto Center
Thu 06:44:51 AM 43.0000 -80.6167 280° West 370 426 29,100 1,150 Climbing Toronto Center
Thu 06:45:51 AM 43.0667 -80.7000 318° Northwest 370 426 30,300 1,150 Climbing Toronto Center
Thu 06:46:51 AM 43.1333 -80.8167 308° West 380 437 31,400 1,150 Climbing Toronto Center
Thu 06:47:51 AM 43.2000 -80.9167 312° West 380 437 32,600 1,100 Climbing Toronto Center
Thu 06:48:51 AM 43.2667 -81.0333 308° West 370 426 33,600 700 Climbing Toronto Center
Thu 06:49:51 AM 43.2667 -81.1667 270° West 380 437 34,000 200 Climbing Toronto Center
Thu 06:50:51 AM 43.2500 -81.3333 262° West 390 449 34,000  Level Toronto Center
Thu 06:51:51 AM 43.2333 -81.4667 260° West 380 437 34,000  Level Toronto Center
Thu 06:52:51 AM 43.2167 -81.6000 260° West 380 437 34,000  Level Toronto Center
Thu 06:53:51 AM 43.2000 -81.7333 260° West 380 437 34,000  Level Toronto Center
Thu 06:54:51 AM 43.1833 -81.9000 262° West 390 449 34,000  Level Toronto Center
Thu 06:55:51 AM 43.1667 -82.0333 260° West 390 449 34,000  Level Toronto Center
Thu 06:56:51 AM 43.1500 -82.2000 262° West 380 437 34,000  Level Toronto Center
Thu 06:57:51 AM 43.1333 -82.3333 260° West 380 437 34,000  Level Toronto Center
Thu 06:58:51 AM 43.1167 -82.4833 261° West 390 449 34,000  Level Toronto Center
Thu 06:59:51 AM 43.1000 -82.6167 260° West 390 449 34,000  Level Toronto Center
Thu 07:00:46 AM 43.0908 -82.7633 265° West 386 444 34,000 -517 Level Cleveland Center
Thu 07:01:47 AM 43.0731 -82.9117 261° West 392 451 33,000 -976 Descending Cleveland Center
Thu 07:02:49 AM 43.0550 -83.0625 261° West 403 464 32,000 -488 Descending Cleveland Center
Thu 07:03:50 AM 43.0358 -83.2133 260° West 404 465 32,000  Level Cleveland Center
Thu 07:04:52 AM 43.0169 -83.3661 260° West 408 470 32,000  Level Cleveland Center
Thu 07:05:54 AM 42.9961 -83.5175 259° West 408 470 32,000  Level Cleveland Center
Thu 07:06:55 AM 42.9775 -83.6703 261° West 408 470 32,000  Level Cleveland Center
Thu 07:07:57 AM 42.9553 -83.8517 261° West 408 470 32,000  Level Cleveland Center
Thu 07:08:58 AM 42.9417 -84.0064 263° West 411 473 32,000  Level Cleveland Center
Thu 07:10:00 AM 42.9267 -84.1606 262° West 412 474 32,000  Level Cleveland Center
Thu 07:11:01 AM 42.9108 -84.3147 262° West 412 474 32,000  Level Cleveland Center
Thu 07:12:03 AM 42.8944 -84.4739 262° West 413 475 32,000  Level Cleveland Center
Thu 07:13:05 AM 42.8783 -84.6297 262° West 414 476 32,000  Level Cleveland Center
Thu 07:14:06 AM 42.8622 -84.7864 262° West 415 478 32,000  Level Cleveland Center
Thu 07:15:10 AM 42.8433 -84.9739 262° West 417 480 32,000  Level Chicago Center
Thu 07:16:11 AM 42.8264 -85.1331 262° West 422 486 32,000  Level Chicago Center
Thu 07:17:12 AM 42.8092 -85.2886 261° West 422 486 32,000 -49 Level Chicago Center
Thu 07:18:13 AM 42.7922 -85.4450 262° West 420 483 31,900 -1,131 Descending Chicago Center
Thu 07:19:14 AM 42.7675 -85.6006 258° West 418 481 29,700 -2,164 Descending Chicago Center
Thu 07:20:15 AM 42.7397 -85.7556 256° West 419 482 27,500 -2,164 Descending Chicago Center
Thu 07:21:16 AM 42.7133 -85.9047 257° West 409 471 25,300 -2,098 Descending Chicago Center
Thu 07:22:18 AM 42.6861 -86.0517 256° West 403 464 23,200 -2,049 Descending Chicago Center
Thu 07:23:19 AM 42.6592 -86.1950 256° West 395 455 21,100 -1,574 Descending Chicago Center
Thu 07:24:20 AM 42.6344 -86.3300 256° West 375 432 20,000 -541 Descending Chicago Center
Thu 07:25:21 AM 42.6092 -86.4669 256° West 372 428 20,000 -244 Level Chicago Center
Thu 07:26:23 AM 42.5822 -86.6050 255° West 374 430 19,500 -1,610 Descending Chicago Center
Thu 07:27:24 AM 42.5547 -86.7544 256° West 370 426 16,700 -2,902 Descending Chicago Center
Thu 07:28:25 AM 42.5172 -86.8894 249° West 356 410 13,600 -2,683 Descending Chicago Center
Thu 07:29:27 AM 42.4842 -87.0097 250° West 346 398 11,200 -1,756 Descending Chicago Center
Thu 07:30:28 AM 42.4542 -87.1153 249° West 305 351 10,000 -738 Descending Chicago Center
Thu 07:31:29 AM 42.4272 -87.2133 250° West 281 323 9,700 -878 Descending Chicago Center
Thu 07:32:31 AM 42.4000 -87.3108 249° West 280 322 8,200 -1,561 Descending Chicago Center
Thu 07:33:32 AM 42.3561 -87.3875 232° Southwest 272 313 6,500 -1,082 Descending Chicago Center
Thu 07:34:33 AM 42.2822 -87.4547 214° Southwest 275 316 6,000 -530 Descending Chicago Center
Thu 07:36:33 AM 42.1500 -87.4000 163° South 287 330 4,900 -667 Descending Chicago TRACON
Thu 07:37:33 AM 42.0667 -87.3833 172° South 273 314 4,000 -474 Descending Chicago TRACON
Thu 07:38:27 AM 42.0000 -87.3833 180° South 279 321 4,000  Level Chicago TRACON
Thu 07:39:28 AM 41.9833 -87.4667 255° West 231 266 4,000  Level Chicago TRACON
Thu 07:40:28 AM 41.9833 -87.5500 270° West 213 245 4,000  Level Chicago TRACON
Thu 07:41:28 AM 41.9833 -87.6333 270° West 213 245 4,000 -400 Level Chicago TRACON
Thu 07:42:28 AM 41.9833 -87.7000 270° West 189 217 3,200 -810 Descending Chicago TRACON
Thu 07:43:34 AM 41.9833 -87.7833 270° West 171 197 2,300 -810 Descending Chicago TRACON
Thu 07:44:34 AM 41.9833 -87.8333 270° West 135 155 1,500 -789 Descending Chicago TRACON
Thu 07:45:28 AM 41.9833 -87.8833 270° West 138 159 800 -778 Descending Chicago TRACON

Login

Don't have an account? Register now (free) for customized features, flight alerts, and more!